sensor_id;sensor_type;location;lat;lon;timestamp;P1;durP1;ratioP1;P2;durP2;ratioP2
11255;SDS011;5685;52.384;13.420;2023-05-15T00:00:00;77.80;;;41.37;;
11255;SDS011;5685;52.384;13.420;2023-05-15T00:03:05;77.60;;;41.27;;
11255;SDS011;5685;52.384;13.420;2023-05-15T00:06:07;77.77;;;41.33;;
11255;SDS011;5685;52.384;13.420;2023-05-15T00:09:10;77.33;;;41.20;;
11255;SDS011;5685;52.384;13.420;2023-05-15T00:12:12;78.27;;;41.50;;
11255;SDS011;5685;52.384;13.420;2023-05-15T00:15:16;77.93;;;41.43;;
11255;SDS011;5685;52.384;13.420;2023-05-15T00:18:18;78.10;;;41.43;;
11255;SDS011;5685;52.384;13.420;2023-05-15T00:21:20;77.17;;;41.00;;
11255;SDS011;5685;52.384;13.420;2023-05-15T00:24:23;77.73;;;41.30;;
11255;SDS011;5685;52.384;13.420;2023-05-15T00:27:25;77.20;;;41.00;;
11255;SDS011;5685;52.384;13.420;2023-05-15T00:30:29;78.40;;;41.50;;
11255;SDS011;5685;52.384;13.420;2023-05-15T00:33:31;78.13;;;41.43;;
11255;SDS011;5685;52.384;13.420;2023-05-15T00:36:33;77.27;;;41.03;;
11255;SDS011;5685;52.384;13.420;2023-05-15T00:39:36;77.87;;;41.27;;
11255;SDS011;5685;52.384;13.420;2023-05-15T00:42:38;76.93;;;40.90;;
11255;SDS011;5685;52.384;13.420;2023-05-15T00:45:42;77.47;;;41.10;;
11255;SDS011;5685;52.384;13.420;2023-05-15T00:48:44;77.27;;;41.03;;
11255;SDS011;5685;52.384;13.420;2023-05-15T00:51:47;78.23;;;41.47;;
11255;SDS011;5685;52.384;13.420;2023-05-15T00:54:49;77.60;;;41.20;;
11255;SDS011;5685;52.384;13.420;2023-05-15T00:57:52;77.57;;;41.17;;
11255;SDS011;5685;52.384;13.420;2023-05-15T01:00:56;77.47;;;41.00;;
11255;SDS011;5685;52.384;13.420;2023-05-15T01:03:58;77.83;;;41.30;;
11255;SDS011;5685;52.384;13.420;2023-05-15T01:07:01;77.30;;;41.13;;
11255;SDS011;5685;52.384;13.420;2023-05-15T01:10:03;77.67;;;41.20;;
11255;SDS011;5685;52.384;13.420;2023-05-15T01:13:06;77.30;;;41.00;;
11255;SDS011;5685;52.384;13.420;2023-05-15T01:16:11;77.33;;;40.93;;
11255;SDS011;5685;52.384;13.420;2023-05-15T01:19:13;78.17;;;41.40;;
11255;SDS011;5685;52.384;13.420;2023-05-15T01:22:31;76.80;;;40.70;;
11255;SDS011;5685;52.384;13.420;2023-05-15T01:25:45;77.23;;;40.90;;
11255;SDS011;5685;52.384;13.420;2023-05-15T01:28:56;77.43;;;41.17;;
11255;SDS011;5685;52.384;13.420;2023-05-15T01:32:01;77.77;;;41.20;;
11255;SDS011;5685;52.384;13.420;2023-05-15T01:35:06;77.63;;;41.20;;
11255;SDS011;5685;52.384;13.420;2023-05-15T01:38:12;77.43;;;41.13;;
11255;SDS011;5685;52.384;13.420;2023-05-15T01:41:18;77.57;;;41.13;;
11255;SDS011;5685;52.384;13.420;2023-05-15T01:44:25;77.57;;;41.13;;
11255;SDS011;5685;52.384;13.420;2023-05-15T01:47:30;78.63;;;41.60;;
11255;SDS011;5685;52.384;13.420;2023-05-15T01:50:34;77.37;;;41.00;;
11255;SDS011;5685;52.384;13.420;2023-05-15T01:53:38;77.57;;;41.07;;
11255;SDS011;5685;52.384;13.420;2023-05-15T01:56:41;77.47;;;40.93;;
11255;SDS011;5685;52.384;13.420;2023-05-15T01:59:45;76.97;;;40.67;;
11255;SDS011;5685;52.384;13.420;2023-05-15T02:02:48;77.73;;;41.07;;
11255;SDS011;5685;52.384;13.420;2023-05-15T02:05:51;77.63;;;41.00;;
11255;SDS011;5685;52.384;13.420;2023-05-15T02:08:56;77.60;;;41.00;;
11255;SDS011;5685;52.384;13.420;2023-05-15T02:11:59;77.97;;;41.10;;
11255;SDS011;5685;52.384;13.420;2023-05-15T02:15:03;77.73;;;41.00;;
11255;SDS011;5685;52.384;13.420;2023-05-15T02:18:06;77.70;;;41.10;;
11255;SDS011;5685;52.384;13.420;2023-05-15T02:21:09;78.03;;;41.10;;
11255;SDS011;5685;52.384;13.420;2023-05-15T02:24:11;78.00;;;41.20;;
11255;SDS011;5685;52.384;13.420;2023-05-15T02:27:16;77.87;;;41.07;;
11255;SDS011;5685;52.384;13.420;2023-05-15T02:30:26;77.67;;;40.93;;
11255;SDS011;5685;52.384;13.420;2023-05-15T02:33:30;77.73;;;40.93;;
11255;SDS011;5685;52.384;13.420;2023-05-15T02:36:36;77.67;;;40.90;;
11255;SDS011;5685;52.384;13.420;2023-05-15T02:39:41;77.77;;;41.10;;
11255;SDS011;5685;52.384;13.420;2023-05-15T02:42:45;77.43;;;40.87;;
11255;SDS011;5685;52.384;13.420;2023-05-15T02:45:50;77.70;;;41.10;;
11255;SDS011;5685;52.384;13.420;2023-05-15T02:48:52;77.20;;;40.77;;
11255;SDS011;5685;52.384;13.420;2023-05-15T02:51:54;77.03;;;40.70;;
11255;SDS011;5685;52.384;13.420;2023-05-15T02:54:57;77.43;;;40.90;;
11255;SDS011;5685;52.384;13.420;2023-05-15T02:57:59;77.30;;;40.93;;
11255;SDS011;5685;52.384;13.420;2023-05-15T03:01:03;77.73;;;41.17;;
11255;SDS011;5685;52.384;13.420;2023-05-15T03:04:05;77.30;;;40.77;;
11255;SDS011;5685;52.384;13.420;2023-05-15T03:07:08;77.57;;;40.90;;
11255;SDS011;5685;52.384;13.420;2023-05-15T03:10:10;77.63;;;41.03;;
11255;SDS011;5685;52.384;13.420;2023-05-15T03:13:12;77.70;;;40.83;;
11255;SDS011;5685;52.384;13.420;2023-05-15T03:16:16;77.13;;;40.67;;
11255;SDS011;5685;52.384;13.420;2023-05-15T03:19:18;77.70;;;40.83;;
11255;SDS011;5685;52.384;13.420;2023-05-15T03:22:21;77.63;;;40.87;;
11255;SDS011;5685;52.384;13.420;2023-05-15T03:25:23;77.67;;;40.73;;
11255;SDS011;5685;52.384;13.420;2023-05-15T03:28:25;77.40;;;40.73;;
11255;SDS011;5685;52.384;13.420;2023-05-15T03:31:29;77.27;;;40.57;;
11255;SDS011;5685;52.384;13.420;2023-05-15T03:34:31;77.50;;;40.63;;
11255;SDS011;5685;52.384;13.420;2023-05-15T03:37:33;77.87;;;40.90;;
11255;SDS011;5685;52.384;13.420;2023-05-15T03:40:36;77.93;;;41.00;;
11255;SDS011;5685;52.384;13.420;2023-05-15T03:43:39;77.93;;;40.87;;
11255;SDS011;5685;52.384;13.420;2023-05-15T03:46:42;77.63;;;40.73;;
11255;SDS011;5685;52.384;13.420;2023-05-15T03:49:45;77.97;;;40.83;;
11255;SDS011;5685;52.384;13.420;2023-05-15T03:52:47;77.80;;;40.70;;
11255;SDS011;5685;52.384;13.420;2023-05-15T03:55:50;77.37;;;40.57;;
11255;SDS011;5685;52.384;13.420;2023-05-15T03:58:52;77.77;;;40.87;;
11255;SDS011;5685;52.384;13.420;2023-05-15T04:01:56;77.47;;;40.60;;
11255;SDS011;5685;52.384;13.420;2023-05-15T04:04:58;77.87;;;40.93;;
11255;SDS011;5685;52.384;13.420;2023-05-15T04:08:01;77.97;;;40.90;;
11255;SDS011;5685;52.384;13.420;2023-05-15T04:11:03;77.60;;;40.77;;
11255;SDS011;5685;52.384;13.420;2023-05-15T04:14:06;78.17;;;40.93;;
11255;SDS011;5685;52.384;13.420;2023-05-15T04:17:09;77.93;;;40.83;;
11255;SDS011;5685;52.384;13.420;2023-05-15T04:20:12;77.77;;;40.77;;
11255;SDS011;5685;52.384;13.420;2023-05-15T04:23:15;77.80;;;40.77;;
11255;SDS011;5685;52.384;13.420;2023-05-15T04:26:17;77.37;;;40.60;;
11255;SDS011;5685;52.384;13.420;2023-05-15T04:29:19;77.03;;;40.40;;
11255;SDS011;5685;52.384;13.420;2023-05-15T04:32:23;77.73;;;40.90;;
11255;SDS011;5685;52.384;13.420;2023-05-15T04:35:26;77.33;;;40.57;;
11255;SDS011;5685;52.384;13.420;2023-05-15T04:38:29;77.73;;;40.83;;
11255;SDS011;5685;52.384;13.420;2023-05-15T04:41:31;77.37;;;40.67;;
11255;SDS011;5685;52.384;13.420;2023-05-15T04:44:33;77.30;;;40.63;;
11255;SDS011;5685;52.384;13.420;2023-05-15T04:47:37;77.37;;;40.63;;
11255;SDS011;5685;52.384;13.420;2023-05-15T04:50:39;77.30;;;40.57;;
11255;SDS011;5685;52.384;13.420;2023-05-15T04:53:42;77.53;;;40.77;;
11255;SDS011;5685;52.384;13.420;2023-05-15T04:56:44;77.37;;;40.63;;
11255;SDS011;5685;52.384;13.420;2023-05-15T04:59:46;77.50;;;40.77;;
11255;SDS011;5685;52.384;13.420;2023-05-15T05:02:50;77.30;;;40.63;;
11255;SDS011;5685;52.384;13.420;2023-05-15T05:05:53;77.60;;;40.80;;
11255;SDS011;5685;52.384;13.420;2023-05-15T05:08:55;77.70;;;40.83;;
11255;SDS011;5685;52.384;13.420;2023-05-15T05:11:57;77.53;;;40.63;;
11255;SDS011;5685;52.384;13.420;2023-05-15T05:15:00;77.53;;;40.83;;
11255;SDS011;5685;52.384;13.420;2023-05-15T05:18:04;77.83;;;40.80;;
11255;SDS011;5685;52.384;13.420;2023-05-15T05:21:07;77.60;;;40.70;;
11255;SDS011;5685;52.384;13.420;2023-05-15T05:24:09;77.47;;;40.77;;
11255;SDS011;5685;52.384;13.420;2023-05-15T05:27:11;77.23;;;40.63;;
11255;SDS011;5685;52.384;13.420;2023-05-15T05:30:14;77.23;;;40.53;;
11255;SDS011;5685;52.384;13.420;2023-05-15T05:33:18;77.23;;;40.50;;
11255;SDS011;5685;52.384;13.420;2023-05-15T05:36:20;78.10;;;41.00;;
11255;SDS011;5685;52.384;13.420;2023-05-15T05:39:22;77.20;;;40.57;;
11255;SDS011;5685;52.384;13.420;2023-05-15T05:42:25;76.90;;;40.33;;
11255;SDS011;5685;52.384;13.420;2023-05-15T05:45:27;78.20;;;41.00;;
11255;SDS011;5685;52.384;13.420;2023-05-15T05:48:31;77.40;;;40.53;;
11255;SDS011;5685;52.384;13.420;2023-05-15T05:51:34;77.90;;;40.80;;
11255;SDS011;5685;52.384;13.420;2023-05-15T05:54:37;78.07;;;40.70;;
11255;SDS011;5685;52.384;13.420;2023-05-15T05:57:39;77.40;;;40.50;;
11255;SDS011;5685;52.384;13.420;2023-05-15T06:00:42;77.63;;;40.57;;
11255;SDS011;5685;52.384;13.420;2023-05-15T06:03:45;78.10;;;40.77;;
11255;SDS011;5685;52.384;13.420;2023-05-15T06:06:48;77.67;;;40.60;;
11255;SDS011;5685;52.384;13.420;2023-05-15T06:09:50;77.63;;;40.53;;
11255;SDS011;5685;52.384;13.420;2023-05-15T06:12:53;77.80;;;40.57;;
11255;SDS011;5685;52.384;13.420;2023-05-15T06:15:55;78.03;;;40.60;;
11255;SDS011;5685;52.384;13.420;2023-05-15T06:18:59;77.63;;;40.57;;
11255;SDS011;5685;52.384;13.420;2023-05-15T06:22:01;78.00;;;40.67;;
11255;SDS011;5685;52.384;13.420;2023-05-15T06:25:04;78.10;;;40.70;;
11255;SDS011;5685;52.384;13.420;2023-05-15T06:28:07;78.07;;;40.63;;
11255;SDS011;5685;52.384;13.420;2023-05-15T06:31:09;77.63;;;40.60;;
11255;SDS011;5685;52.384;13.420;2023-05-15T06:34:13;77.93;;;40.57;;
11255;SDS011;5685;52.384;13.420;2023-05-15T06:37:15;78.10;;;40.70;;
11255;SDS011;5685;52.384;13.420;2023-05-15T06:40:17;77.27;;;40.40;;
11255;SDS011;5685;52.384;13.420;2023-05-15T06:43:20;77.73;;;40.53;;
11255;SDS011;5685;52.384;13.420;2023-05-15T06:46:22;78.17;;;40.73;;
11255;SDS011;5685;52.384;13.420;2023-05-15T06:49:26;78.37;;;40.77;;
11255;SDS011;5685;52.384;13.420;2023-05-15T06:52:28;78.03;;;40.93;;
11255;SDS011;5685;52.384;13.420;2023-05-15T06:55:31;78.43;;;40.73;;
11255;SDS011;5685;52.384;13.420;2023-05-15T06:58:35;77.53;;;40.30;;
11255;SDS011;5685;52.384;13.420;2023-05-15T07:01:37;77.70;;;40.43;;
11255;SDS011;5685;52.384;13.420;2023-05-15T07:04:41;78.37;;;40.67;;
11255;SDS011;5685;52.384;13.420;2023-05-15T07:07:43;78.90;;;41.10;;
11255;SDS011;5685;52.384;13.420;2023-05-15T07:10:47;78.27;;;40.60;;
11255;SDS011;5685;52.384;13.420;2023-05-15T07:13:49;78.57;;;40.67;;
11255;SDS011;5685;52.384;13.420;2023-05-15T07:16:51;78.10;;;40.57;;
11255;SDS011;5685;52.384;13.420;2023-05-15T07:19:55;77.70;;;40.30;;
11255;SDS011;5685;52.384;13.420;2023-05-15T07:22:57;77.83;;;40.40;;
11255;SDS011;5685;52.384;13.420;2023-05-15T07:26:00;78.57;;;40.73;;
11255;SDS011;5685;52.384;13.420;2023-05-15T07:29:02;78.27;;;40.60;;
11255;SDS011;5685;52.384;13.420;2023-05-15T07:32:04;77.93;;;40.47;;
11255;SDS011;5685;52.384;13.420;2023-05-15T07:35:08;77.77;;;40.50;;
11255;SDS011;5685;52.384;13.420;2023-05-15T07:38:11;77.23;;;40.30;;
11255;SDS011;5685;52.384;13.420;2023-05-15T07:41:14;78.50;;;40.63;;
11255;SDS011;5685;52.384;13.420;2023-05-15T07:44:16;78.20;;;40.63;;
11255;SDS011;5685;52.384;13.420;2023-05-15T07:47:18;78.50;;;40.80;;
11255;SDS011;5685;52.384;13.420;2023-05-15T07:50:22;77.63;;;40.33;;
11255;SDS011;5685;52.384;13.420;2023-05-15T07:53:25;78.53;;;40.70;;
11255;SDS011;5685;52.384;13.420;2023-05-15T07:56:27;78.50;;;40.77;;
11255;SDS011;5685;52.384;13.420;2023-05-15T07:59:29;77.80;;;40.33;;
11255;SDS011;5685;52.384;13.420;2023-05-15T08:02:32;78.37;;;40.70;;
11255;SDS011;5685;52.384;13.420;2023-05-15T08:05:35;79.07;;;40.97;;
11255;SDS011;5685;52.384;13.420;2023-05-15T08:08:38;78.27;;;40.63;;
11255;SDS011;5685;52.384;13.420;2023-05-15T08:11:40;77.77;;;40.47;;
11255;SDS011;5685;52.384;13.420;2023-05-15T08:14:42;77.83;;;40.37;;
11255;SDS011;5685;52.384;13.420;2023-05-15T08:17:44;77.23;;;40.17;;
11255;SDS011;5685;52.384;13.420;2023-05-15T08:20:48;77.67;;;40.33;;
11255;SDS011;5685;52.384;13.420;2023-05-15T08:23:51;77.20;;;40.27;;
11255;SDS011;5685;52.384;13.420;2023-05-15T08:26:53;77.73;;;40.40;;
11255;SDS011;5685;52.384;13.420;2023-05-15T08:29:56;77.80;;;40.53;;
11255;SDS011;5685;52.384;13.420;2023-05-15T08:32:58;77.00;;;40.20;;
11255;SDS011;5685;52.384;13.420;2023-05-15T08:36:02;77.53;;;40.30;;
11255;SDS011;5685;52.384;13.420;2023-05-15T08:39:04;77.67;;;40.43;;
11255;SDS011;5685;52.384;13.420;2023-05-15T08:42:10;78.07;;;40.60;;
11255;SDS011;5685;52.384;13.420;2023-05-15T08:45:15;78.03;;;40.60;;
11255;SDS011;5685;52.384;13.420;2023-05-15T08:48:17;78.20;;;40.70;;
11255;SDS011;5685;52.384;13.420;2023-05-15T08:51:21;78.07;;;40.50;;
11255;SDS011;5685;52.384;13.420;2023-05-15T08:54:24;77.97;;;40.50;;
11255;SDS011;5685;52.384;13.420;2023-05-15T08:57:27;78.13;;;40.50;;
11255;SDS011;5685;52.384;13.420;2023-05-15T09:00:30;77.43;;;40.27;;
11255;SDS011;5685;52.384;13.420;2023-05-15T09:03:34;78.00;;;40.40;;
11255;SDS011;5685;52.384;13.420;2023-05-15T09:06:37;77.73;;;40.43;;
11255;SDS011;5685;52.384;13.420;2023-05-15T09:09:41;77.77;;;40.40;;
11255;SDS011;5685;52.384;13.420;2023-05-15T09:12:45;77.83;;;40.53;;
11255;SDS011;5685;52.384;13.420;2023-05-15T09:15:47;77.70;;;40.50;;
11255;SDS011;5685;52.384;13.420;2023-05-15T09:18:50;77.80;;;40.40;;
11255;SDS011;5685;52.384;13.420;2023-05-15T09:21:55;77.97;;;40.50;;
11255;SDS011;5685;52.384;13.420;2023-05-15T09:24:58;78.17;;;40.60;;
11255;SDS011;5685;52.384;13.420;2023-05-15T09:28:02;78.23;;;40.70;;
11255;SDS011;5685;52.384;13.420;2023-05-15T09:31:04;77.80;;;40.57;;
11255;SDS011;5685;52.384;13.420;2023-05-15T09:34:08;77.73;;;40.40;;
11255;SDS011;5685;52.384;13.420;2023-05-15T09:37:12;77.87;;;40.63;;
11255;SDS011;5685;52.384;13.420;2023-05-15T09:40:28;77.57;;;40.37;;
11255;SDS011;5685;52.384;13.420;2023-05-15T09:43:34;77.90;;;40.60;;
11255;SDS011;5685;52.384;13.420;2023-05-15T09:46:37;77.73;;;40.50;;
11255;SDS011;5685;52.384;13.420;2023-05-15T09:49:42;78.13;;;40.57;;
11255;SDS011;5685;52.384;13.420;2023-05-15T09:52:47;77.50;;;40.33;;
11255;SDS011;5685;52.384;13.420;2023-05-15T09:55:50;77.90;;;40.50;;
11255;SDS011;5685;52.384;13.420;2023-05-15T09:58:53;77.83;;;40.33;;
11255;SDS011;5685;52.384;13.420;2023-05-15T10:01:55;77.50;;;40.23;;
11255;SDS011;5685;52.384;13.420;2023-05-15T10:04:58;77.83;;;40.27;;
11255;SDS011;5685;52.384;13.420;2023-05-15T10:08:02;77.27;;;40.10;;
11255;SDS011;5685;52.384;13.420;2023-05-15T10:11:04;77.67;;;40.30;;
11255;SDS011;5685;52.384;13.420;2023-05-15T10:14:07;77.73;;;40.47;;
11255;SDS011;5685;52.384;13.420;2023-05-15T10:17:10;77.87;;;40.47;;
11255;SDS011;5685;52.384;13.420;2023-05-15T10:20:14;77.87;;;40.57;;
11255;SDS011;5685;52.384;13.420;2023-05-15T10:23:18;77.60;;;40.43;;
11255;SDS011;5685;52.384;13.420;2023-05-15T10:26:23;77.93;;;40.50;;
11255;SDS011;5685;52.384;13.420;2023-05-15T10:29:30;77.83;;;40.50;;
11255;SDS011;5685;52.384;13.420;2023-05-15T10:32:33;77.90;;;40.63;;
11255;SDS011;5685;52.384;13.420;2023-05-15T10:35:36;77.67;;;40.50;;
11255;SDS011;5685;52.384;13.420;2023-05-15T10:38:40;78.03;;;40.60;;
11255;SDS011;5685;52.384;13.420;2023-05-15T10:41:44;77.63;;;40.53;;
11255;SDS011;5685;52.384;13.420;2023-05-15T10:44:47;77.60;;;40.47;;
11255;SDS011;5685;52.384;13.420;2023-05-15T10:47:49;77.77;;;40.80;;
11255;SDS011;5685;52.384;13.420;2023-05-15T10:50:52;77.57;;;40.47;;
11255;SDS011;5685;52.384;13.420;2023-05-15T10:53:56;77.43;;;40.37;;
11255;SDS011;5685;52.384;13.420;2023-05-15T10:56:58;77.90;;;40.60;;
11255;SDS011;5685;52.384;13.420;2023-05-15T11:00:01;78.03;;;40.67;;
11255;SDS011;5685;52.384;13.420;2023-05-15T11:03:04;77.20;;;40.37;;
11255;SDS011;5685;52.384;13.420;2023-05-15T11:06:07;77.33;;;40.27;;
11255;SDS011;5685;52.384;13.420;2023-05-15T11:16:07;77.70;;;40.50;;
11255;SDS011;5685;52.384;13.420;2023-05-15T11:19:20;77.50;;;40.50;;
11255;SDS011;5685;52.384;13.420;2023-05-15T11:22:27;78.03;;;40.70;;
11255;SDS011;5685;52.384;13.420;2023-05-15T11:25:30;77.83;;;40.70;;
11255;SDS011;5685;52.384;13.420;2023-05-15T11:28:39;77.57;;;40.50;;
11255;SDS011;5685;52.384;13.420;2023-05-15T11:31:43;77.47;;;40.57;;
11255;SDS011;5685;52.384;13.420;2023-05-15T11:34:45;77.30;;;40.37;;
11255;SDS011;5685;52.384;13.420;2023-05-15T11:37:51;77.73;;;40.60;;
11255;SDS011;5685;52.384;13.420;2023-05-15T11:40:54;77.80;;;40.60;;
11255;SDS011;5685;52.384;13.420;2023-05-15T11:43:57;77.53;;;40.37;;
11255;SDS011;5685;52.384;13.420;2023-05-15T11:47:01;78.07;;;40.67;;
11255;SDS011;5685;52.384;13.420;2023-05-15T11:50:04;77.97;;;40.53;;
11255;SDS011;5685;52.384;13.420;2023-05-15T11:53:07;78.30;;;40.80;;
11255;SDS011;5685;52.384;13.420;2023-05-15T11:56:12;77.97;;;40.60;;
11255;SDS011;5685;52.384;13.420;2023-05-15T11:59:14;77.63;;;40.50;;
11255;SDS011;5685;52.384;13.420;2023-05-15T12:02:18;78.20;;;40.70;;
11255;SDS011;5685;52.384;13.420;2023-05-15T12:05:21;77.77;;;40.37;;
11255;SDS011;5685;52.384;13.420;2023-05-15T12:08:23;78.10;;;40.60;;
11255;SDS011;5685;52.384;13.420;2023-05-15T12:11:26;77.97;;;40.50;;
11255;SDS011;5685;52.384;13.420;2023-05-15T12:14:29;78.07;;;40.67;;
11255;SDS011;5685;52.384;13.420;2023-05-15T12:17:34;77.80;;;40.50;;
11255;SDS011;5685;52.384;13.420;2023-05-15T12:20:37;78.30;;;40.60;;
11255;SDS011;5685;52.384;13.420;2023-05-15T12:23:49;77.97;;;40.47;;
11255;SDS011;5685;52.384;13.420;2023-05-15T12:26:52;78.17;;;40.67;;
11255;SDS011;5685;52.384;13.420;2023-05-15T12:29:54;77.50;;;40.30;;
11255;SDS011;5685;52.384;13.420;2023-05-15T12:32:59;77.80;;;40.50;;
11255;SDS011;5685;52.384;13.420;2023-05-15T12:36:02;78.00;;;40.57;;
11255;SDS011;5685;52.384;13.420;2023-05-15T12:39:05;78.00;;;40.47;;
11255;SDS011;5685;52.384;13.420;2023-05-15T12:42:08;77.73;;;40.40;;
11255;SDS011;5685;52.384;13.420;2023-05-15T12:45:11;77.73;;;40.40;;
11255;SDS011;5685;52.384;13.420;2023-05-15T12:48:14;78.50;;;40.87;;
11255;SDS011;5685;52.384;13.420;2023-05-15T12:51:17;78.00;;;40.63;;
11255;SDS011;5685;52.384;13.420;2023-05-15T12:54:20;78.40;;;40.77;;
11255;SDS011;5685;52.384;13.420;2023-05-15T12:57:22;77.70;;;40.40;;
11255;SDS011;5685;52.384;13.420;2023-05-15T13:00:25;77.97;;;40.53;;
11255;SDS011;5685;52.384;13.420;2023-05-15T13:03:31;78.03;;;40.47;;
11255;SDS011;5685;52.384;13.420;2023-05-15T13:06:33;77.93;;;40.50;;
11255;SDS011;5685;52.384;13.420;2023-05-15T13:09:36;77.97;;;40.60;;
11255;SDS011;5685;52.384;13.420;2023-05-15T13:12:38;78.30;;;40.63;;
11255;SDS011;5685;52.384;13.420;2023-05-15T13:15:41;77.83;;;40.40;;
11255;SDS011;5685;52.384;13.420;2023-05-15T13:18:45;78.07;;;40.63;;
11255;SDS011;5685;52.384;13.420;2023-05-15T13:21:48;78.03;;;40.57;;
11255;SDS011;5685;52.384;13.420;2023-05-15T13:24:51;77.33;;;40.30;;
11255;SDS011;5685;52.384;13.420;2023-05-15T13:27:54;77.77;;;40.60;;
11255;SDS011;5685;52.384;13.420;2023-05-15T13:30:56;77.90;;;40.47;;
11255;SDS011;5685;52.384;13.420;2023-05-15T13:34:00;78.13;;;40.57;;
11255;SDS011;5685;52.384;13.420;2023-05-15T13:37:02;77.77;;;40.47;;
11255;SDS011;5685;52.384;13.420;2023-05-15T13:40:06;77.67;;;40.40;;
11255;SDS011;5685;52.384;13.420;2023-05-15T13:43:10;77.67;;;40.47;;
11255;SDS011;5685;52.384;13.420;2023-05-15T13:46:12;78.00;;;40.63;;
11255;SDS011;5685;52.384;13.420;2023-05-15T13:49:16;77.93;;;40.60;;
11255;SDS011;5685;52.384;13.420;2023-05-15T13:52:19;78.17;;;40.60;;
11255;SDS011;5685;52.384;13.420;2023-05-15T13:55:21;77.67;;;40.40;;
11255;SDS011;5685;52.384;13.420;2023-05-15T13:58:24;78.03;;;40.67;;
11255;SDS011;5685;52.384;13.420;2023-05-15T14:01:27;77.87;;;40.60;;
11255;SDS011;5685;52.384;13.420;2023-05-15T14:04:30;78.23;;;40.70;;
11255;SDS011;5685;52.384;13.420;2023-05-15T14:07:33;77.33;;;40.43;;
11255;SDS011;5685;52.384;13.420;2023-05-15T14:10:35;78.13;;;40.80;;
11255;SDS011;5685;52.384;13.420;2023-05-15T14:13:37;78.30;;;40.70;;
11255;SDS011;5685;52.384;13.420;2023-05-15T14:16:41;77.83;;;40.70;;
11255;SDS011;5685;52.384;13.420;2023-05-15T14:19:45;78.17;;;40.70;;
11255;SDS011;5685;52.384;13.420;2023-05-15T14:22:47;77.50;;;40.47;;
11255;SDS011;5685;52.384;13.420;2023-05-15T14:25:49;78.03;;;40.60;;
11255;SDS011;5685;52.384;13.420;2023-05-15T14:28:52;78.07;;;40.63;;
11255;SDS011;5685;52.384;13.420;2023-05-15T14:31:54;78.13;;;40.67;;
11255;SDS011;5685;52.384;13.420;2023-05-15T14:34:58;77.30;;;40.30;;
11255;SDS011;5685;52.384;13.420;2023-05-15T14:38:01;77.67;;;40.47;;
11255;SDS011;5685;52.384;13.420;2023-05-15T14:41:03;78.17;;;40.70;;
11255;SDS011;5685;52.384;13.420;2023-05-15T14:44:06;77.90;;;40.60;;
11255;SDS011;5685;52.384;13.420;2023-05-15T14:47:08;77.93;;;40.53;;
11255;SDS011;5685;52.384;13.420;2023-05-15T14:50:14;78.17;;;40.60;;
11255;SDS011;5685;52.384;13.420;2023-05-15T14:53:16;77.37;;;40.30;;
11255;SDS011;5685;52.384;13.420;2023-05-15T14:56:18;77.83;;;40.53;;
11255;SDS011;5685;52.384;13.420;2023-05-15T14:59:21;78.13;;;40.83;;
11255;SDS011;5685;52.384;13.420;2023-05-15T15:02:23;77.57;;;40.57;;
11255;SDS011;5685;52.384;13.420;2023-05-15T15:05:27;77.87;;;40.60;;
11255;SDS011;5685;52.384;13.420;2023-05-15T15:08:29;77.87;;;40.57;;
11255;SDS011;5685;52.384;13.420;2023-05-15T15:11:31;77.07;;;40.27;;
11255;SDS011;5685;52.384;13.420;2023-05-15T15:14:33;78.07;;;40.73;;
11255;SDS011;5685;52.384;13.420;2023-05-15T15:17:36;78.07;;;40.67;;
11255;SDS011;5685;52.384;13.420;2023-05-15T15:20:39;78.07;;;40.80;;
11255;SDS011;5685;52.384;13.420;2023-05-15T15:23:43;77.67;;;40.60;;
11255;SDS011;5685;52.384;13.420;2023-05-15T15:26:47;77.93;;;40.67;;
11255;SDS011;5685;52.384;13.420;2023-05-15T15:29:49;77.87;;;40.57;;
11255;SDS011;5685;52.384;13.420;2023-05-15T15:32:52;78.00;;;40.67;;
11255;SDS011;5685;52.384;13.420;2023-05-15T15:35:56;78.07;;;40.77;;
11255;SDS011;5685;52.384;13.420;2023-05-15T15:38:58;78.13;;;40.87;;
11255;SDS011;5685;52.384;13.420;2023-05-15T15:42:01;77.57;;;40.50;;
11255;SDS011;5685;52.384;13.420;2023-05-15T15:45:03;78.13;;;40.77;;
11255;SDS011;5685;52.384;13.420;2023-05-15T15:48:05;77.63;;;40.50;;
11255;SDS011;5685;52.384;13.420;2023-05-15T15:51:09;78.03;;;40.60;;
11255;SDS011;5685;52.384;13.420;2023-05-15T15:54:11;78.07;;;40.80;;
11255;SDS011;5685;52.384;13.420;2023-05-15T15:57:14;78.27;;;40.87;;
11255;SDS011;5685;52.384;13.420;2023-05-15T16:00:16;78.10;;;40.80;;
11255;SDS011;5685;52.384;13.420;2023-05-15T16:03:19;78.10;;;40.87;;
11255;SDS011;5685;52.384;13.420;2023-05-15T16:06:23;77.77;;;40.77;;
11255;SDS011;5685;52.384;13.420;2023-05-15T16:09:25;77.33;;;40.60;;
11255;SDS011;5685;52.384;13.420;2023-05-15T16:12:27;77.70;;;40.67;;
11255;SDS011;5685;52.384;13.420;2023-05-15T16:15:30;77.63;;;40.77;;
11255;SDS011;5685;52.384;13.420;2023-05-15T16:18:32;78.13;;;40.93;;
11255;SDS011;5685;52.384;13.420;2023-05-15T16:21:36;77.10;;;40.43;;
11255;SDS011;5685;52.384;13.420;2023-05-15T16:24:38;77.63;;;40.67;;
11255;SDS011;5685;52.384;13.420;2023-05-15T16:27:40;77.13;;;40.57;;
11255;SDS011;5685;52.384;13.420;2023-05-15T16:30:43;76.97;;;40.40;;
11255;SDS011;5685;52.384;13.420;2023-05-15T16:33:46;77.73;;;40.90;;
11255;SDS011;5685;52.384;13.420;2023-05-15T16:36:52;77.13;;;40.60;;
11255;SDS011;5685;52.384;13.420;2023-05-15T16:39:54;77.13;;;40.50;;
11255;SDS011;5685;52.384;13.420;2023-05-15T16:42:56;77.73;;;40.80;;
11255;SDS011;5685;52.384;13.420;2023-05-15T16:45:58;76.93;;;40.43;;
11255;SDS011;5685;52.384;13.420;2023-05-15T16:49:01;77.97;;;40.87;;
11255;SDS011;5685;52.384;13.420;2023-05-15T16:52:05;77.77;;;40.90;;
11255;SDS011;5685;52.384;13.420;2023-05-15T16:55:07;77.70;;;40.63;;
11255;SDS011;5685;52.384;13.420;2023-05-15T16:58:09;77.73;;;40.80;;
11255;SDS011;5685;52.384;13.420;2023-05-15T17:01:12;78.27;;;41.00;;
11255;SDS011;5685;52.384;13.420;2023-05-15T17:04:14;77.60;;;40.70;;
11255;SDS011;5685;52.384;13.420;2023-05-15T17:07:18;78.27;;;41.10;;
11255;SDS011;5685;52.384;13.420;2023-05-15T17:10:21;77.37;;;40.60;;
11255;SDS011;5685;52.384;13.420;2023-05-15T17:13:23;77.63;;;40.80;;
11255;SDS011;5685;52.384;13.420;2023-05-15T17:16:25;78.17;;;40.87;;
11255;SDS011;5685;52.384;13.420;2023-05-15T17:19:28;77.83;;;40.90;;
11255;SDS011;5685;52.384;13.420;2023-05-15T17:22:32;78.30;;;41.03;;
11255;SDS011;5685;52.384;13.420;2023-05-15T17:25:34;77.90;;;40.90;;
11255;SDS011;5685;52.384;13.420;2023-05-15T17:28:36;77.90;;;40.83;;
11255;SDS011;5685;52.384;13.420;2023-05-15T17:31:39;77.77;;;40.90;;
11255;SDS011;5685;52.384;13.420;2023-05-15T17:34:41;77.63;;;40.77;;
11255;SDS011;5685;52.384;13.420;2023-05-15T17:37:45;77.63;;;40.93;;
11255;SDS011;5685;52.384;13.420;2023-05-15T17:40:47;76.93;;;40.40;;
11255;SDS011;5685;52.384;13.420;2023-05-15T17:43:49;77.87;;;40.80;;
11255;SDS011;5685;52.384;13.420;2023-05-15T17:46:52;78.03;;;40.87;;
11255;SDS011;5685;52.384;13.420;2023-05-15T17:49:54;77.33;;;40.60;;
11255;SDS011;5685;52.384;13.420;2023-05-15T17:52:58;77.63;;;40.73;;
11255;SDS011;5685;52.384;13.420;2023-05-15T17:56:01;77.93;;;40.83;;